sensor_id;sensor_type;location;lat;lon;timestamp;P1;durP1;ratioP1;P2;durP2;ratioP2
13816;SDS011;6979;52.116;5.286;2023-04-01T00:01:12;10.97;;;7.87;;
13816;SDS011;6979;52.116;5.286;2023-04-01T00:03:41;10.17;;;8.80;;
13816;SDS011;6979;52.116;5.286;2023-04-01T00:06:08;9.50;;;8.60;;
13816;SDS011;6979;52.116;5.286;2023-04-01T00:08:37;12.17;;;9.77;;
13816;SDS011;6979;52.116;5.286;2023-04-01T00:11:05;9.60;;;8.47;;
13816;SDS011;6979;52.116;5.286;2023-04-01T00:13:33;12.53;;;8.70;;
13816;SDS011;6979;52.116;5.286;2023-04-01T00:16:00;14.43;;;11.67;;
13816;SDS011;6979;52.116;5.286;2023-04-01T00:18:29;12.53;;;10.30;;
13816;SDS011;6979;52.116;5.286;2023-04-01T00:20:56;13.73;;;9.70;;
13816;SDS011;6979;52.116;5.286;2023-04-01T00:23:23;11.10;;;9.10;;
13816;SDS011;6979;52.116;5.286;2023-04-01T00:25:50;11.97;;;8.87;;
13816;SDS011;6979;52.116;5.286;2023-04-01T00:28:17;9.17;;;8.37;;
13816;SDS011;6979;52.116;5.286;2023-04-01T00:30:47;9.63;;;7.60;;
13816;SDS011;6979;52.116;5.286;2023-04-01T00:33:14;7.97;;;6.83;;
13816;SDS011;6979;52.116;5.286;2023-04-01T00:35:41;8.87;;;7.00;;
13816;SDS011;6979;52.116;5.286;2023-04-01T00:38:09;9.37;;;7.57;;
13816;SDS011;6979;52.116;5.286;2023-04-01T00:40:37;10.37;;;8.17;;
13816;SDS011;6979;52.116;5.286;2023-04-01T00:43:09;10.00;;;7.63;;
13816;SDS011;6979;52.116;5.286;2023-04-01T00:45:40;10.17;;;8.20;;
13816;SDS011;6979;52.116;5.286;2023-04-01T00:48:11;8.10;;;7.10;;
13816;SDS011;6979;52.116;5.286;2023-04-01T00:50:41;9.63;;;6.73;;
13816;SDS011;6979;52.116;5.286;2023-04-01T00:53:13;10.23;;;7.33;;
13816;SDS011;6979;52.116;5.286;2023-04-01T00:55:41;10.53;;;7.93;;
13816;SDS011;6979;52.116;5.286;2023-04-01T00:58:14;8.33;;;7.47;;
13816;SDS011;6979;52.116;5.286;2023-04-01T01:00:45;8.03;;;6.83;;
13816;SDS011;6979;52.116;5.286;2023-04-01T01:03:18;9.33;;;7.53;;
13816;SDS011;6979;52.116;5.286;2023-04-01T01:05:50;9.60;;;7.77;;
13816;SDS011;6979;52.116;5.286;2023-04-01T01:08:33;8.80;;;7.53;;
13816;SDS011;6979;52.116;5.286;2023-04-01T01:11:11;14.50;;;9.03;;
13816;SDS011;6979;52.116;5.286;2023-04-01T01:13:40;12.33;;;9.33;;
13816;SDS011;6979;52.116;5.286;2023-04-01T01:16:12;14.83;;;9.73;;
13816;SDS011;6979;52.116;5.286;2023-04-01T01:18:47;12.70;;;9.73;;
13816;SDS011;6979;52.116;5.286;2023-04-01T01:21:32;10.63;;;8.63;;
13816;SDS011;6979;52.116;5.286;2023-04-01T01:24:38;8.43;;;7.07;;
13816;SDS011;6979;52.116;5.286;2023-04-01T01:27:13;6.07;;;5.60;;
13816;SDS011;6979;52.116;5.286;2023-04-01T01:32:54;5.97;;;5.37;;
13816;SDS011;6979;52.116;5.286;2023-04-01T01:35:45;5.97;;;4.73;;
13816;SDS011;6979;52.116;5.286;2023-04-01T01:38:18;7.63;;;6.50;;
13816;SDS011;6979;52.116;5.286;2023-04-01T01:40:58;5.73;;;5.13;;
13816;SDS011;6979;52.116;5.286;2023-04-01T01:43:29;5.40;;;4.90;;
13816;SDS011;6979;52.116;5.286;2023-04-01T01:46:00;5.60;;;5.00;;
13816;SDS011;6979;52.116;5.286;2023-04-01T01:48:33;6.63;;;4.63;;
13816;SDS011;6979;52.116;5.286;2023-04-01T01:51:02;5.60;;;5.13;;
13816;SDS011;6979;52.116;5.286;2023-04-01T01:53:31;5.17;;;4.67;;
13816;SDS011;6979;52.116;5.286;2023-04-01T01:55:58;4.83;;;4.40;;
13816;SDS011;6979;52.116;5.286;2023-04-01T01:58:27;5.67;;;3.50;;
13816;SDS011;6979;52.116;5.286;2023-04-01T02:00:58;4.60;;;4.10;;
13816;SDS011;6979;52.116;5.286;2023-04-01T02:03:28;5.27;;;4.73;;
13816;SDS011;6979;52.116;5.286;2023-04-01T02:05:57;4.33;;;3.73;;
13816;SDS011;6979;52.116;5.286;2023-04-01T02:08:29;4.40;;;4.00;;
13816;SDS011;6979;52.116;5.286;2023-04-01T02:11:00;4.10;;;3.80;;
13816;SDS011;6979;52.116;5.286;2023-04-01T02:13:35;3.93;;;3.40;;
13816;SDS011;6979;52.116;5.286;2023-04-01T02:16:06;5.07;;;4.57;;
13816;SDS011;6979;52.116;5.286;2023-04-01T02:18:38;4.37;;;3.97;;
13816;SDS011;6979;52.116;5.286;2023-04-01T02:21:05;6.53;;;4.80;;
13816;SDS011;6979;52.116;5.286;2023-04-01T02:23:35;4.80;;;4.33;;
13816;SDS011;6979;52.116;5.286;2023-04-01T02:26:03;4.53;;;4.13;;
13816;SDS011;6979;52.116;5.286;2023-04-01T02:28:32;4.80;;;4.03;;
13816;SDS011;6979;52.116;5.286;2023-04-01T02:31:03;3.80;;;3.50;;
13816;SDS011;6979;52.116;5.286;2023-04-01T02:33:30;4.83;;;4.43;;
13816;SDS011;6979;52.116;5.286;2023-04-01T02:35:58;3.63;;;3.33;;
13816;SDS011;6979;52.116;5.286;2023-04-01T02:38:25;5.17;;;3.47;;
13816;SDS011;6979;52.116;5.286;2023-04-01T02:40:58;5.87;;;4.00;;
13816;SDS011;6979;52.116;5.286;2023-04-01T02:43:26;5.43;;;4.70;;
13816;SDS011;6979;52.116;5.286;2023-04-01T02:45:54;4.97;;;4.27;;
13816;SDS011;6979;52.116;5.286;2023-04-01T02:48:22;4.27;;;3.63;;
13816;SDS011;6979;52.116;5.286;2023-04-01T02:50:49;4.07;;;3.57;;
13816;SDS011;6979;52.116;5.286;2023-04-01T02:53:16;3.97;;;3.60;;
13816;SDS011;6979;52.116;5.286;2023-04-01T02:55:44;3.90;;;3.10;;
13816;SDS011;6979;52.116;5.286;2023-04-01T02:58:12;4.27;;;2.80;;
13816;SDS011;6979;52.116;5.286;2023-04-01T03:00:39;3.20;;;2.97;;
13816;SDS011;6979;52.116;5.286;2023-04-01T03:03:06;3.13;;;2.90;;
13816;SDS011;6979;52.116;5.286;2023-04-01T03:05:36;3.23;;;2.93;;
13816;SDS011;6979;52.116;5.286;2023-04-01T03:08:03;3.23;;;2.93;;
13816;SDS011;6979;52.116;5.286;2023-04-01T03:10:31;2.67;;;2.47;;
13816;SDS011;6979;52.116;5.286;2023-04-01T03:12:59;3.40;;;2.50;;
13816;SDS011;6979;52.116;5.286;2023-04-01T03:15:27;3.13;;;2.83;;
13816;SDS011;6979;52.116;5.286;2023-04-01T03:17:54;3.53;;;3.00;;
13816;SDS011;6979;52.116;5.286;2023-04-01T03:20:22;3.77;;;3.37;;
13816;SDS011;6979;52.116;5.286;2023-04-01T03:22:51;3.50;;;3.20;;
13816;SDS011;6979;52.116;5.286;2023-04-01T03:25:17;5.10;;;4.13;;
13816;SDS011;6979;52.116;5.286;2023-04-01T03:27:46;4.53;;;4.13;;
13816;SDS011;6979;52.116;5.286;2023-04-01T03:30:13;4.53;;;4.13;;
13816;SDS011;6979;52.116;5.286;2023-04-01T03:32:49;4.70;;;4.30;;
13816;SDS011;6979;52.116;5.286;2023-04-01T03:35:16;4.93;;;4.43;;
13816;SDS011;6979;52.116;5.286;2023-04-01T03:37:44;4.67;;;4.37;;
13816;SDS011;6979;52.116;5.286;2023-04-01T03:40:11;5.10;;;4.57;;
13816;SDS011;6979;52.116;5.286;2023-04-01T03:42:39;4.77;;;4.37;;
13816;SDS011;6979;52.116;5.286;2023-04-01T03:45:06;5.23;;;4.63;;
13816;SDS011;6979;52.116;5.286;2023-04-01T03:47:34;4.70;;;4.30;;
13816;SDS011;6979;52.116;5.286;2023-04-01T03:50:03;4.33;;;3.93;;
13816;SDS011;6979;52.116;5.286;2023-04-01T03:52:30;4.50;;;4.20;;
13816;SDS011;6979;52.116;5.286;2023-04-01T03:54:57;4.43;;;4.10;;
13816;SDS011;6979;52.116;5.286;2023-04-01T03:57:25;4.30;;;4.00;;
13816;SDS011;6979;52.116;5.286;2023-04-01T03:59:57;4.57;;;4.23;;
13816;SDS011;6979;52.116;5.286;2023-04-01T04:02:25;4.80;;;4.40;;
13816;SDS011;6979;52.116;5.286;2023-04-01T04:04:52;4.23;;;3.93;;
13816;SDS011;6979;52.116;5.286;2023-04-01T04:07:22;4.30;;;4.00;;
13816;SDS011;6979;52.116;5.286;2023-04-01T04:10:00;4.23;;;3.93;;
13816;SDS011;6979;52.116;5.286;2023-04-01T04:12:28;4.30;;;4.00;;
13816;SDS011;6979;52.116;5.286;2023-04-01T04:14:55;4.47;;;4.17;;
13816;SDS011;6979;52.116;5.286;2023-04-01T04:17:22;5.37;;;4.87;;
13816;SDS011;6979;52.116;5.286;2023-04-01T04:19:49;5.00;;;4.60;;
13816;SDS011;6979;52.116;5.286;2023-04-01T04:22:16;5.33;;;4.93;;
13816;SDS011;6979;52.116;5.286;2023-04-01T04:24:44;5.10;;;4.60;;
13816;SDS011;6979;52.116;5.286;2023-04-01T04:27:12;5.40;;;5.00;;
13816;SDS011;6979;52.116;5.286;2023-04-01T04:30:12;4.50;;;4.10;;
13816;SDS011;6979;52.116;5.286;2023-04-01T04:32:39;4.23;;;3.87;;
13816;SDS011;6979;52.116;5.286;2023-04-01T04:35:08;3.93;;;3.63;;
13816;SDS011;6979;52.116;5.286;2023-04-01T04:37:37;3.77;;;3.47;;
13816;SDS011;6979;52.116;5.286;2023-04-01T04:40:07;4.37;;;4.00;;
13816;SDS011;6979;52.116;5.286;2023-04-01T04:42:34;4.03;;;3.73;;
13816;SDS011;6979;52.116;5.286;2023-04-01T04:45:07;3.50;;;2.90;;
13816;SDS011;6979;52.116;5.286;2023-04-01T04:47:40;3.13;;;2.83;;
13816;SDS011;6979;52.116;5.286;2023-04-01T04:50:07;3.10;;;2.90;;
13816;SDS011;6979;52.116;5.286;2023-04-01T04:52:38;2.60;;;2.40;;
13816;SDS011;6979;52.116;5.286;2023-04-01T04:55:07;2.80;;;2.60;;
13816;SDS011;6979;52.116;5.286;2023-04-01T04:57:35;2.33;;;2.13;;
13816;SDS011;6979;52.116;5.286;2023-04-01T05:00:02;2.40;;;2.20;;
13816;SDS011;6979;52.116;5.286;2023-04-01T05:02:46;3.13;;;2.70;;
13816;SDS011;6979;52.116;5.286;2023-04-01T05:05:13;3.57;;;3.27;;
13816;SDS011;6979;52.116;5.286;2023-04-01T05:07:43;4.20;;;3.90;;
13816;SDS011;6979;52.116;5.286;2023-04-01T05:10:11;3.50;;;3.20;;
13816;SDS011;6979;52.116;5.286;2023-04-01T05:12:38;4.20;;;3.80;;
13816;SDS011;6979;52.116;5.286;2023-04-01T05:15:08;4.40;;;4.00;;
13816;SDS011;6979;52.116;5.286;2023-04-01T05:17:37;4.27;;;3.97;;
13816;SDS011;6979;52.116;5.286;2023-04-01T05:20:05;4.40;;;4.10;;
13816;SDS011;6979;52.116;5.286;2023-04-01T05:22:33;4.60;;;4.20;;
13816;SDS011;6979;52.116;5.286;2023-04-01T05:25:01;4.30;;;4.00;;
13816;SDS011;6979;52.116;5.286;2023-04-01T05:27:30;3.70;;;3.40;;
13816;SDS011;6979;52.116;5.286;2023-04-01T05:30:03;3.80;;;3.50;;
13816;SDS011;6979;52.116;5.286;2023-04-01T05:33:12;4.57;;;4.17;;
13816;SDS011;6979;52.116;5.286;2023-04-01T05:35:39;4.40;;;4.00;;
13816;SDS011;6979;52.116;5.286;2023-04-01T05:38:12;4.60;;;4.20;;
13816;SDS011;6979;52.116;5.286;2023-04-01T05:40:39;4.40;;;4.00;;
13816;SDS011;6979;52.116;5.286;2023-04-01T05:43:08;4.87;;;4.47;;
13816;SDS011;6979;52.116;5.286;2023-04-01T05:45:37;4.50;;;4.10;;
13816;SDS011;6979;52.116;5.286;2023-04-01T05:48:13;5.00;;;4.53;;
13816;SDS011;6979;52.116;5.286;2023-04-01T05:50:41;5.37;;;4.87;;
13816;SDS011;6979;52.116;5.286;2023-04-01T05:53:10;5.03;;;4.53;;
13816;SDS011;6979;52.116;5.286;2023-04-01T05:55:42;4.03;;;3.73;;
13816;SDS011;6979;52.116;5.286;2023-04-01T05:58:13;4.70;;;4.30;;
13816;SDS011;6979;52.116;5.286;2023-04-01T06:00:43;4.80;;;4.40;;
13816;SDS011;6979;52.116;5.286;2023-04-01T06:03:12;5.10;;;4.70;;
13816;SDS011;6979;52.116;5.286;2023-04-01T06:05:40;4.83;;;4.40;;
13816;SDS011;6979;52.116;5.286;2023-04-01T06:08:10;4.50;;;4.10;;
13816;SDS011;6979;52.116;5.286;2023-04-01T06:10:53;4.30;;;4.00;;
13816;SDS011;6979;52.116;5.286;2023-04-01T06:13:38;4.30;;;4.00;;
13816;SDS011;6979;52.116;5.286;2023-04-01T06:16:18;4.03;;;3.70;;
13816;SDS011;6979;52.116;5.286;2023-04-01T06:18:59;4.40;;;4.00;;
13816;SDS011;6979;52.116;5.286;2023-04-01T06:21:53;4.27;;;3.97;;
13816;SDS011;6979;52.116;5.286;2023-04-01T06:24:53;4.17;;;3.87;;
13816;SDS011;6979;52.116;5.286;2023-04-01T06:27:45;4.03;;;3.70;;
13816;SDS011;6979;52.116;5.286;2023-04-01T06:30:32;3.60;;;3.30;;
13816;SDS011;6979;52.116;5.286;2023-04-01T06:33:08;4.80;;;4.43;;
13816;SDS011;6979;52.116;5.286;2023-04-01T06:36:01;4.27;;;3.97;;
13816;SDS011;6979;52.116;5.286;2023-04-01T06:39:02;4.27;;;3.97;;
13816;SDS011;6979;52.116;5.286;2023-04-01T06:41:55;4.17;;;3.87;;
13816;SDS011;6979;52.116;5.286;2023-04-01T06:44:41;3.50;;;3.27;;
13816;SDS011;6979;52.116;5.286;2023-04-01T06:47:39;3.07;;;2.87;;
13816;SDS011;6979;52.116;5.286;2023-04-01T06:50:36;2.90;;;2.70;;
13816;SDS011;6979;52.116;5.286;2023-04-01T06:53:38;2.10;;;2.00;;
13816;SDS011;6979;52.116;5.286;2023-04-01T06:56:40;2.60;;;2.40;;
13816;SDS011;6979;52.116;5.286;2023-04-01T06:59:27;3.03;;;2.83;;
13816;SDS011;6979;52.116;5.286;2023-04-01T07:02:17;2.63;;;2.43;;
13816;SDS011;6979;52.116;5.286;2023-04-01T07:04:53;2.70;;;2.50;;
13816;SDS011;6979;52.116;5.286;2023-04-01T07:07:27;2.77;;;2.57;;
13816;SDS011;6979;52.116;5.286;2023-04-01T07:10:10;2.57;;;2.37;;
13816;SDS011;6979;52.116;5.286;2023-04-01T07:13:02;2.00;;;1.90;;
13816;SDS011;6979;52.116;5.286;2023-04-01T07:16:05;2.70;;;2.50;;
13816;SDS011;6979;52.116;5.286;2023-04-01T07:18:44;2.10;;;2.00;;
13816;SDS011;6979;52.116;5.286;2023-04-01T07:21:30;2.07;;;1.87;;
13816;SDS011;6979;52.116;5.286;2023-04-01T07:24:13;2.27;;;2.17;;
13816;SDS011;6979;52.116;5.286;2023-04-01T07:26:53;1.90;;;1.80;;
13816;SDS011;6979;52.116;5.286;2023-04-01T07:29:25;2.43;;;2.27;;
13816;SDS011;6979;52.116;5.286;2023-04-01T07:32:07;2.40;;;2.30;;
13816;SDS011;6979;52.116;5.286;2023-04-01T07:34:53;2.73;;;2.53;;
13816;SDS011;6979;52.116;5.286;2023-04-01T07:37:45;2.93;;;2.63;;
13816;SDS011;6979;52.116;5.286;2023-04-01T07:40:26;3.67;;;3.43;;
13816;SDS011;6979;52.116;5.286;2023-04-01T07:43:12;3.60;;;3.30;;
13816;SDS011;6979;52.116;5.286;2023-04-01T07:46:10;3.67;;;3.37;;
13816;SDS011;6979;52.116;5.286;2023-04-01T07:48:47;3.23;;;3.03;;
13816;SDS011;6979;52.116;5.286;2023-04-01T07:51:20;4.83;;;4.43;;
13816;SDS011;6979;52.116;5.286;2023-04-01T07:53:58;4.13;;;3.83;;
13816;SDS011;6979;52.116;5.286;2023-04-01T07:56:32;4.63;;;4.23;;
13816;SDS011;6979;52.116;5.286;2023-04-01T07:59:10;4.13;;;3.73;;
13816;SDS011;6979;52.116;5.286;2023-04-01T08:02:08;4.67;;;4.07;;
13816;SDS011;6979;52.116;5.286;2023-04-01T08:04:51;4.60;;;4.20;;
13816;SDS011;6979;52.116;5.286;2023-04-01T08:07:24;4.83;;;4.40;;
13816;SDS011;6979;52.116;5.286;2023-04-01T08:10:25;4.43;;;4.03;;
13816;SDS011;6979;52.116;5.286;2023-04-01T08:13:18;5.00;;;4.60;;
13816;SDS011;6979;52.116;5.286;2023-04-01T08:16:15;4.13;;;3.77;;
13816;SDS011;6979;52.116;5.286;2023-04-01T08:18:57;6.30;;;4.63;;
13816;SDS011;6979;52.116;5.286;2023-04-01T08:21:38;5.73;;;5.23;;
13816;SDS011;6979;52.116;5.286;2023-04-01T08:24:11;5.30;;;4.80;;
13816;SDS011;6979;52.116;5.286;2023-04-01T08:26:46;5.37;;;4.87;;
13816;SDS011;6979;52.116;5.286;2023-04-01T08:29:16;5.60;;;5.10;;
13816;SDS011;6979;52.116;5.286;2023-04-01T08:31:48;5.40;;;4.90;;
13816;SDS011;6979;52.116;5.286;2023-04-01T08:34:19;5.37;;;4.90;;
13816;SDS011;6979;52.116;5.286;2023-04-01T08:36:51;5.73;;;5.07;;
13816;SDS011;6979;52.116;5.286;2023-04-01T08:39:24;5.63;;;5.13;;
13816;SDS011;6979;52.116;5.286;2023-04-01T08:45:11;5.47;;;4.97;;
13816;SDS011;6979;52.116;5.286;2023-04-01T08:48:11;5.97;;;5.40;;
13816;SDS011;6979;52.116;5.286;2023-04-01T08:56:53;5.20;;;4.70;;
13816;SDS011;6979;52.116;5.286;2023-04-01T08:59:31;5.57;;;5.07;;
13816;SDS011;6979;52.116;5.286;2023-04-01T09:02:47;4.77;;;4.37;;
13816;SDS011;6979;52.116;5.286;2023-04-01T09:08:32;5.50;;;5.00;;
13816;SDS011;6979;52.116;5.286;2023-04-01T09:11:11;6.23;;;5.57;;
13816;SDS011;6979;52.116;5.286;2023-04-01T09:14:05;5.50;;;5.00;;
13816;SDS011;6979;52.116;5.286;2023-04-01T09:20:16;4.90;;;4.40;;
13816;SDS011;6979;52.116;5.286;2023-04-01T09:23:10;4.87;;;4.47;;
13816;SDS011;6979;52.116;5.286;2023-04-01T09:26:07;5.17;;;4.67;;
13816;SDS011;6979;52.116;5.286;2023-04-01T09:28:42;4.33;;;3.93;;
13816;SDS011;6979;52.116;5.286;2023-04-01T09:34:44;4.10;;;3.80;;
13816;SDS011;6979;52.116;5.286;2023-04-01T09:37:29;4.97;;;4.57;;
13816;SDS011;6979;52.116;5.286;2023-04-01T09:40:14;4.20;;;3.90;;
13816;SDS011;6979;52.116;5.286;2023-04-01T09:42:49;3.63;;;3.33;;
13816;SDS011;6979;52.116;5.286;2023-04-01T09:45:35;3.67;;;3.37;;
13816;SDS011;6979;52.116;5.286;2023-04-01T09:48:12;3.83;;;3.53;;
13816;SDS011;6979;52.116;5.286;2023-04-01T09:50:50;3.70;;;3.40;;
13816;SDS011;6979;52.116;5.286;2023-04-01T09:53:36;3.80;;;3.50;;
13816;SDS011;6979;52.116;5.286;2023-04-01T09:56:23;3.27;;;2.97;;
13816;SDS011;6979;52.116;5.286;2023-04-01T10:05:51;2.57;;;2.37;;
13816;SDS011;6979;52.116;5.286;2023-04-01T10:24:23;3.93;;;3.63;;
13816;SDS011;6979;52.116;5.286;2023-04-01T10:27:22;4.27;;;3.97;;
13816;SDS011;6979;52.116;5.286;2023-04-01T10:30:05;4.70;;;4.30;;
13816;SDS011;6979;52.116;5.286;2023-04-01T10:36:16;4.33;;;3.93;;
13816;SDS011;6979;52.116;5.286;2023-04-01T10:39:25;4.40;;;4.10;;
13816;SDS011;6979;52.116;5.286;2023-04-01T10:46:22;4.70;;;4.30;;
13816;SDS011;6979;52.116;5.286;2023-04-01T10:52:52;5.03;;;4.67;;
13816;SDS011;6979;52.116;5.286;2023-04-01T10:56:11;4.97;;;4.57;;
13816;SDS011;6979;52.116;5.286;2023-04-01T10:59:42;4.50;;;4.10;;
13816;SDS011;6979;52.116;5.286;2023-04-01T11:06:42;4.33;;;4.00;;
13816;SDS011;6979;52.116;5.286;2023-04-01T11:09:56;4.13;;;3.83;;
13816;SDS011;6979;52.116;5.286;2023-04-01T11:22:01;2.80;;;2.60;;
13816;SDS011;6979;52.116;5.286;2023-04-01T11:25:06;3.10;;;2.90;;
13816;SDS011;6979;52.116;5.286;2023-04-01T11:28:02;2.87;;;2.67;;
13816;SDS011;6979;52.116;5.286;2023-04-01T11:30:53;2.87;;;2.67;;
13816;SDS011;6979;52.116;5.286;2023-04-01T11:33:38;2.40;;;2.30;;
13816;SDS011;6979;52.116;5.286;2023-04-01T11:36:21;2.13;;;2.03;;
13816;SDS011;6979;52.116;5.286;2023-04-01T11:39:08;2.80;;;2.60;;
13816;SDS011;6979;52.116;5.286;2023-04-01T11:42:06;2.33;;;2.13;;
13816;SDS011;6979;52.116;5.286;2023-04-01T11:45:01;2.60;;;2.40;;
13816;SDS011;6979;52.116;5.286;2023-04-01T11:47:48;2.80;;;2.60;;
13816;SDS011;6979;52.116;5.286;2023-04-01T11:50:27;2.97;;;2.77;;
13816;SDS011;6979;52.116;5.286;2023-04-01T11:56:09;2.47;;;2.37;;
13816;SDS011;6979;52.116;5.286;2023-04-01T12:02:09;2.83;;;2.70;;
13816;SDS011;6979;52.116;5.286;2023-04-01T12:04:54;2.63;;;2.53;;
13816;SDS011;6979;52.116;5.286;2023-04-01T12:07:56;3.10;;;2.90;;
13816;SDS011;6979;52.116;5.286;2023-04-01T12:10:32;3.80;;;3.60;;
13816;SDS011;6979;52.116;5.286;2023-04-01T12:13:09;4.13;;;3.83;;
13816;SDS011;6979;52.116;5.286;2023-04-01T12:15:50;4.70;;;4.40;;
13816;SDS011;6979;52.116;5.286;2023-04-01T12:18:30;4.60;;;4.27;;
13816;SDS011;6979;52.116;5.286;2023-04-01T12:21:08;5.37;;;4.97;;
13816;SDS011;6979;52.116;5.286;2023-04-01T12:24:04;5.17;;;4.87;;
13816;SDS011;6979;52.116;5.286;2023-04-01T12:32:55;4.33;;;4.03;;
13816;SDS011;6979;52.116;5.286;2023-04-01T12:35:43;3.87;;;3.67;;
13816;SDS011;6979;52.116;5.286;2023-04-01T12:38:25;4.50;;;4.20;;
13816;SDS011;6979;52.116;5.286;2023-04-01T12:41:03;4.43;;;4.13;;
13816;SDS011;6979;52.116;5.286;2023-04-01T12:43:56;4.23;;;3.93;;
13816;SDS011;6979;52.116;5.286;2023-04-01T12:46:42;4.30;;;4.00;;
13816;SDS011;6979;52.116;5.286;2023-04-01T12:49:48;4.63;;;4.30;;
13816;SDS011;6979;52.116;5.286;2023-04-01T12:52:37;4.57;;;4.27;;
13816;SDS011;6979;52.116;5.286;2023-04-01T12:55:25;5.03;;;4.67;;
13816;SDS011;6979;52.116;5.286;2023-04-01T12:58:22;5.37;;;4.97;;
13816;SDS011;6979;52.116;5.286;2023-04-01T13:01:23;6.30;;;5.80;;
13816;SDS011;6979;52.116;5.286;2023-04-01T13:07:07;7.30;;;6.70;;
13816;SDS011;6979;52.116;5.286;2023-04-01T13:09:52;7.27;;;6.70;;
13816;SDS011;6979;52.116;5.286;2023-04-01T13:12:36;7.27;;;6.67;;
13816;SDS011;6979;52.116;5.286;2023-04-01T13:15:19;7.63;;;7.03;;
13816;SDS011;6979;52.116;5.286;2023-04-01T13:18:01;6.87;;;6.27;;
13816;SDS011;6979;52.116;5.286;2023-04-01T13:20:42;6.90;;;6.23;;
13816;SDS011;6979;52.116;5.286;2023-04-01T13:23:24;6.73;;;6.23;;
13816;SDS011;6979;52.116;5.286;2023-04-01T13:26:05;6.10;;;5.60;;
13816;SDS011;6979;52.116;5.286;2023-04-01T13:28:43;5.73;;;5.33;;
13816;SDS011;6979;52.116;5.286;2023-04-01T13:31:19;6.10;;;5.60;;
13816;SDS011;6979;52.116;5.286;2023-04-01T13:33:58;5.67;;;5.23;;
13816;SDS011;6979;52.116;5.286;2023-04-01T13:36:40;4.67;;;4.37;;
13816;SDS011;6979;52.116;5.286;2023-04-01T13:39:34;5.57;;;5.17;;
13816;SDS011;6979;52.116;5.286;2023-04-01T13:42:15;4.70;;;4.40;;
13816;SDS011;6979;52.116;5.286;2023-04-01T13:44:49;4.30;;;4.00;;
13816;SDS011;6979;52.116;5.286;2023-04-01T13:47:24;3.87;;;3.57;;
13816;SDS011;6979;52.116;5.286;2023-04-01T13:50:23;3.67;;;3.47;;
13816;SDS011;6979;52.116;5.286;2023-04-01T13:53:00;3.37;;;3.17;;
13816;SDS011;6979;52.116;5.286;2023-04-01T13:55:50;3.10;;;2.90;;
13816;SDS011;6979;52.116;5.286;2023-04-01T13:58:45;3.07;;;2.87;;
13816;SDS011;6979;52.116;5.286;2023-04-01T14:01:27;2.43;;;2.33;;
13816;SDS011;6979;52.116;5.286;2023-04-01T14:04:10;2.93;;;2.73;;
13816;SDS011;6979;52.116;5.286;2023-04-01T14:07:01;3.70;;;3.40;;
13816;SDS011;6979;52.116;5.286;2023-04-01T14:09:45;3.90;;;3.60;;
13816;SDS011;6979;52.116;5.286;2023-04-01T14:12:27;3.97;;;3.67;;
13816;SDS011;6979;52.116;5.286;2023-04-01T14:15:07;4.50;;;4.10;;
13816;SDS011;6979;52.116;5.286;2023-04-01T14:17:51;3.77;;;3.47;;
13816;SDS011;6979;52.116;5.286;2023-04-01T14:20:28;4.40;;;4.10;;
13816;SDS011;6979;52.116;5.286;2023-04-01T14:29:00;5.47;;;5.07;;
13816;SDS011;6979;52.116;5.286;2023-04-01T14:35:14;5.03;;;4.63;;
13816;SDS011;6979;52.116;5.286;2023-04-01T14:37:57;6.00;;;5.53;;
13816;SDS011;6979;52.116;5.286;2023-04-01T14:44:22;5.47;;;5.07;;
13816;SDS011;6979;52.116;5.286;2023-04-01T14:51:15;5.60;;;5.10;;
13816;SDS011;6979;52.116;5.286;2023-04-01T14:53:52;5.63;;;5.17;;
13816;SDS011;6979;52.116;5.286;2023-04-01T14:56:37;4.87;;;4.50;;
13816;SDS011;6979;52.116;5.286;2023-04-01T14:59:07;5.40;;;5.00;;
13816;SDS011;6979;52.116;5.286;2023-04-01T15:02:08;4.53;;;4.23;;
13816;SDS011;6979;52.116;5.286;2023-04-01T15:05:19;4.23;;;3.93;;
13816;SDS011;6979;52.116;5.286;2023-04-01T15:08:08;4.53;;;4.17;;
13816;SDS011;6979;52.116;5.286;2023-04-01T15:13:54;4.60;;;4.30;;
13816;SDS011;6979;52.116;5.286;2023-04-01T15:16:56;4.50;;;4.20;;
13816;SDS011;6979;52.116;5.286;2023-04-01T15:19:53;4.00;;;3.70;;
13816;SDS011;6979;52.116;5.286;2023-04-01T15:22:47;4.10;;;3.80;;
13816;SDS011;6979;52.116;5.286;2023-04-01T15:25:34;3.80;;;3.60;;
13816;SDS011;6979;52.116;5.286;2023-04-01T15:28:27;4.43;;;4.13;;
13816;SDS011;6979;52.116;5.286;2023-04-01T15:31:12;4.03;;;3.77;;
13816;SDS011;6979;52.116;5.286;2023-04-01T15:33:52;4.17;;;3.93;;
13816;SDS011;6979;52.116;5.286;2023-04-01T15:36:40;3.67;;;3.47;;
13816;SDS011;6979;52.116;5.286;2023-04-01T15:39:21;3.60;;;3.40;;
13816;SDS011;6979;52.116;5.286;2023-04-01T15:42:04;4.07;;;3.77;;
13816;SDS011;6979;52.116;5.286;2023-04-01T15:44:51;3.40;;;3.20;;
13816;SDS011;6979;52.116;5.286;2023-04-01T15:59:15;3.20;;;3.00;;
13816;SDS011;6979;52.116;5.286;2023-04-01T16:01:55;3.40;;;3.20;;
13816;SDS011;6979;52.116;5.286;2023-04-01T16:04:41;3.30;;;3.10;;
13816;SDS011;6979;52.116;5.286;2023-04-01T16:07:20;3.80;;;3.57;;
13816;SDS011;6979;52.116;5.286;2023-04-01T16:13:24;3.20;;;3.00;;
13816;SDS011;6979;52.116;5.286;2023-04-01T16:16:00;3.00;;;2.80;;
13816;SDS011;6979;52.116;5.286;2023-04-01T16:19:00;3.47;;;3.27;;
13816;SDS011;6979;52.116;5.286;2023-04-01T16:21:43;2.93;;;2.73;;
13816;SDS011;6979;52.116;5.286;2023-04-01T16:24:17;3.10;;;2.90;;
13816;SDS011;6979;52.116;5.286;2023-04-01T16:26:52;2.30;;;2.10;;
13816;SDS011;6979;52.116;5.286;2023-04-01T16:29:25;2.90;;;2.70;;
13816;SDS011;6979;52.116;5.286;2023-04-01T16:32:05;3.00;;;2.80;;
13816;SDS011;6979;52.116;5.286;2023-04-01T16:34:45;2.77;;;2.67;;
13816;SDS011;6979;52.116;5.286;2023-04-01T16:37:29;2.90;;;2.80;;
13816;SDS011;6979;52.116;5.286;2023-04-01T16:40:11;1.97;;;1.87;;
13816;SDS011;6979;52.116;5.286;2023-04-01T16:42:47;1.83;;;1.73;;
13816;SDS011;6979;52.116;5.286;2023-04-01T16:45:26;2.20;;;2.10;;
13816;SDS011;6979;52.116;5.286;2023-04-01T16:48:10;2.13;;;2.03;;
13816;SDS011;6979;52.116;5.286;2023-04-01T16:50:44;2.10;;;2.00;;
13816;SDS011;6979;52.116;5.286;2023-04-01T16:53:19;2.20;;;2.10;;
13816;SDS011;6979;52.116;5.286;2023-04-01T16:56:03;2.40;;;2.30;;
13816;SDS011;6979;52.116;5.286;2023-04-01T16:58:37;3.37;;;3.17;;
13816;SDS011;6979;52.116;5.286;2023-04-01T17:01:09;3.57;;;3.37;;
13816;SDS011;6979;52.116;5.286;2023-04-01T17:03:40;3.77;;;3.50;;
13816;SDS011;6979;52.116;5.286;2023-04-01T17:06:12;2.90;;;2.80;;
13816;SDS011;6979;52.116;5.286;2023-04-01T17:09:05;3.67;;;3.47;;
13816;SDS011;6979;52.116;5.286;2023-04-01T17:11:47;2.90;;;2.70;;
13816;SDS011;6979;52.116;5.286;2023-04-01T17:14:26;3.47;;;3.27;;
13816;SDS011;6979;52.116;5.286;2023-04-01T17:17:19;3.90;;;3.70;;
13816;SDS011;6979;52.116;5.286;2023-04-01T17:20:07;3.37;;;3.17;;
13816;SDS011;6979;52.116;5.286;2023-04-01T17:22:43;3.60;;;3.37;;
13816;SDS011;6979;52.116;5.286;2023-04-01T17:25:28;3.63;;;3.43;;
13816;SDS011;6979;52.116;5.286;2023-04-01T17:28:08;3.83;;;3.63;;
13816;SDS011;6979;52.116;5.286;2023-04-01T17:30:42;3.47;;;3.27;;
13816;SDS011;6979;52.116;5.286;2023-04-01T17:33:19;2.87;;;2.77;;
13816;SDS011;6979;52.116;5.286;2023-04-01T17:35:58;2.70;;;2.60;;
13816;SDS011;6979;52.116;5.286;2023-04-01T17:41:24;2.20;;;2.10;;
13816;SDS011;6979;52.116;5.286;2023-04-01T17:44:03;2.33;;;2.23;;
13816;SDS011;6979;52.116;5.286;2023-04-01T17:46:46;2.40;;;2.30;;
13816;SDS011;6979;52.116;5.286;2023-04-01T17:49:26;2.43;;;2.33;;
13816;SDS011;6979;52.116;5.286;2023-04-01T17:52:03;2.53;;;2.43;;
13816;SDS011;6979;52.116;5.286;2023-04-01T17:54:43;2.40;;;2.30;;
13816;SDS011;6979;52.116;5.286;2023-04-01T17:57:27;2.87;;;2.67;;
13816;SDS011;6979;52.116;5.286;2023-04-01T18:00:17;3.20;;;3.00;;
13816;SDS011;6979;52.116;5.286;2023-04-01T18:02:51;3.40;;;3.20;;
13816;SDS011;6979;52.116;5.286;2023-04-01T18:05:29;3.63;;;3.43;;
13816;SDS011;6979;52.116;5.286;2023-04-01T18:08:10;2.73;;;2.63;;
13816;SDS011;6979;52.116;5.286;2023-04-01T18:10:43;3.57;;;3.37;;
13816;SDS011;6979;52.116;5.286;2023-04-01T18:13:29;3.30;;;3.10;;
13816;SDS011;6979;52.116;5.286;2023-04-01T18:16:24;3.00;;;2.80;;